createdAt,value
2023-05-16T00:01:39.684Z,98741.53
2023-05-16T00:04:08.418Z,98743.34
2023-05-16T00:06:36.593Z,98740.19
2023-05-16T00:09:04.552Z,98738.06
2023-05-16T00:11:32.544Z,98743.75
2023-05-16T00:14:01.661Z,98745.25
2023-05-16T00:16:30.328Z,98753.59
2023-05-16T00:18:59.949Z,98751.25
2023-05-16T00:21:28.526Z,98749.44
2023-05-16T00:23:56.464Z,98751.13
2023-05-16T00:26:24.402Z,98753.97
2023-05-16T00:28:52.470Z,98755.16
2023-05-16T00:31:20.728Z,98760.16
2023-05-16T00:33:49.375Z,98760.34
2023-05-16T00:36:17.307Z,98755.34
2023-05-16T00:38:48.555Z,98756.50
2023-05-16T00:41:18.301Z,98758.69
2023-05-16T00:43:46.200Z,98756.03
2023-05-16T00:46:14.120Z,98761.84
2023-05-16T00:48:42.427Z,98761.66
2023-05-16T00:51:10.809Z,98763.34
2023-05-16T00:53:38.856Z,98771.19
2023-05-16T00:56:07.527Z,98773.03
2023-05-16T00:58:35.731Z,98767.03
2023-05-16T01:01:05.245Z,98770.00
2023-05-16T01:03:33.535Z,98773.03
2023-05-16T01:06:01.710Z,98775.34
2023-05-16T01:08:29.710Z,98782.84
2023-05-16T01:11:46.540Z,98772.22
2023-05-16T01:14:38.908Z,98780.03
2023-05-16T01:17:24.134Z,98782.69
2023-05-16T01:20:08.846Z,98793.97
2023-05-16T01:22:48.888Z,98799.31
2023-05-16T01:25:31.779Z,98801.50
2023-05-16T01:28:03.335Z,98810.28
2023-05-16T01:30:40.036Z,98809.31
2023-05-16T01:33:10.431Z,98806.31
2023-05-16T01:35:51.723Z,98811.28
2023-05-16T01:38:28.760Z,98809.63
2023-05-16T01:41:08.676Z,98820.44
2023-05-16T01:43:46.503Z,98821.63
2023-05-16T01:46:26.309Z,98827.25
2023-05-16T01:49:07.435Z,98832.59
2023-05-16T01:51:39.656Z,98832.75
2023-05-16T01:54:13.899Z,98836.25
2023-05-16T01:56:50.227Z,98832.56
2023-05-16T01:59:22.608Z,98842.88
2023-05-16T02:01:56.977Z,98844.91
2023-05-16T02:04:24.979Z,98837.22
2023-05-16T02:06:53.094Z,98837.03
2023-05-16T02:09:21.414Z,98833.53
2023-05-16T02:11:49.371Z,98830.53
2023-05-16T02:14:17.480Z,98834.72
2023-05-16T02:16:48.450Z,98837.19
2023-05-16T02:19:18.325Z,98841.84
2023-05-16T02:21:46.311Z,98841.34
2023-05-16T02:24:14.737Z,98840.28
2023-05-16T02:26:42.767Z,98848.25
2023-05-16T02:29:11.320Z,98841.38
2023-05-16T02:31:39.582Z,98848.66
2023-05-16T02:34:08.151Z,98847.31
2023-05-16T02:36:36.416Z,98844.97
2023-05-16T02:39:06.700Z,98841.28
2023-05-16T02:41:34.745Z,98838.97
2023-05-16T02:44:02.816Z,98830.75
2023-05-16T02:46:35.213Z,98819.97
2023-05-16T02:49:05.087Z,98824.31
2023-05-16T02:51:33.480Z,98835.91
2023-05-16T02:54:01.518Z,98849.19
2023-05-16T02:56:29.433Z,98843.75
2023-05-16T02:58:57.545Z,98843.59
2023-05-16T03:01:25.709Z,98847.91
2023-05-16T03:03:53.879Z,98844.88
2023-05-16T03:06:22.171Z,98853.06
2023-05-16T03:08:49.985Z,98860.41
2023-05-16T03:11:21.863Z,98860.09
2023-05-16T03:13:49.977Z,98859.59
2023-05-16T03:16:17.849Z,98866.28
2023-05-16T03:18:47.631Z,98871.44
2023-05-16T03:21:15.653Z,98871.94
2023-05-16T03:23:45.963Z,98876.13
2023-05-16T03:26:14.089Z,98872.13
2023-05-16T03:28:42.996Z,98877.97
2023-05-16T03:31:11.692Z,98877.34
2023-05-16T03:33:39.864Z,98876.84
2023-05-16T03:36:08.373Z,98872.53
2023-05-16T03:38:37.200Z,98868.13
2023-05-16T03:41:05.144Z,98872.81
2023-05-16T03:43:33.254Z,98870.31
2023-05-16T03:46:04.293Z,98873.16
2023-05-16T03:48:32.248Z,98874.50
2023-05-16T03:51:00.338Z,98882.34
2023-05-16T03:53:28.122Z,98887.16
2023-05-16T03:55:55.985Z,98887.66
2023-05-16T03:58:23.918Z,98892.84
2023-05-16T04:00:51.798Z,98892.50
2023-05-16T04:03:19.836Z,98895.03
2023-05-16T04:05:47.885Z,98897.34
2023-05-16T04:08:15.699Z,98893.38
2023-05-16T04:10:43.534Z,98896.88
2023-05-16T04:13:11.741Z,98895.03
2023-05-16T04:15:39.589Z,98902.34
2023-05-16T04:18:09.783Z,98907.34
2023-05-16T04:20:37.857Z,98902.00
2023-05-16T04:23:06.127Z,98911.13
2023-05-16T04:25:34.382Z,98919.41
2023-05-16T04:28:02.558Z,98926.72
2023-05-16T04:30:30.744Z,98921.69
2023-05-16T04:33:01.288Z,98924.75
2023-05-16T04:35:29.833Z,98914.94
2023-05-16T04:37:58.141Z,98924.69
2023-05-16T04:40:27.301Z,98937.75
2023-05-16T04:42:56.053Z,98929.44
2023-05-16T04:45:26.689Z,98932.31
2023-05-16T04:47:55.186Z,98931.47
2023-05-16T04:50:23.734Z,98932.59
2023-05-16T04:52:52.824Z,98926.16
2023-05-16T04:55:21.922Z,98918.06
2023-05-16T04:57:50.046Z,98920.81
2023-05-16T05:00:18.573Z,98924.72
2023-05-16T05:02:47.645Z,98926.22
2023-05-16T05:05:15.953Z,98921.16
2023-05-16T05:07:43.999Z,98922.97
2023-05-16T05:10:12.758Z,98921.34
2023-05-16T05:12:41.416Z,98926.78
2023-05-16T05:15:09.577Z,98923.38
2023-05-16T05:17:38.055Z,98915.06
2023-05-16T05:20:07.027Z,98922.94
2023-05-16T05:22:34.941Z,98919.84
2023-05-16T05:25:03.120Z,98913.16
2023-05-16T05:27:31.641Z,98919.81
2023-05-16T05:29:59.756Z,98920.66
2023-05-16T05:32:27.866Z,98912.19
2023-05-16T05:34:56.026Z,98904.09
2023-05-16T05:37:25.589Z,98903.25
2023-05-16T05:39:53.709Z,98906.84
2023-05-16T05:42:21.760Z,98904.81
2023-05-16T05:44:49.698Z,98903.66
2023-05-16T05:47:18.682Z,98896.94
2023-05-16T05:49:47.324Z,98903.88
2023-05-16T05:52:15.332Z,98897.16
2023-05-16T05:54:43.360Z,98905.38
2023-05-16T05:57:11.639Z,98914.59
2023-05-16T05:59:39.500Z,98919.50
2023-05-16T06:02:08.219Z,98915.19
2023-05-16T06:04:36.700Z,98916.00
2023-05-16T06:07:05.149Z,98915.31
2023-05-16T06:09:32.982Z,98912.19
2023-05-16T06:12:00.996Z,98916.06
2023-05-16T06:14:29.898Z,98926.16
2023-05-16T06:16:58.072Z,98920.31
2023-05-16T06:19:26.382Z,98926.47
2023-05-16T06:21:54.598Z,98933.34
2023-05-16T06:24:23.021Z,98940.50
2023-05-16T06:26:51.067Z,98939.63
2023-05-16T06:29:19.602Z,98934.47
2023-05-16T06:31:49.363Z,98936.72
2023-05-16T06:34:17.368Z,98942.56
2023-05-16T06:36:45.517Z,98940.53
2023-05-16T06:39:13.594Z,98944.59
2023-05-16T06:41:41.930Z,98947.06
2023-05-16T06:44:16.683Z,98950.06
2023-05-16T06:46:44.989Z,98947.19
2023-05-16T06:49:13.583Z,98936.84
2023-05-16T06:51:41.699Z,98939.94
2023-05-16T06:54:09.763Z,98942.88
2023-05-16T06:56:37.895Z,98941.38
2023-05-16T06:59:07.358Z,98956.34
2023-05-16T07:01:38.318Z,98946.44
2023-05-16T07:04:07.877Z,98947.44
2023-05-16T07:06:37.118Z,98955.94
2023-05-16T07:09:06.044Z,98956.94
2023-05-16T07:11:34.595Z,98949.13
2023-05-16T07:14:05.097Z,98947.25
2023-05-16T07:16:34.458Z,98952.22
2023-05-16T07:19:03.633Z,98947.59
2023-05-16T07:21:32.826Z,98943.00
2023-05-16T07:24:03.399Z,98931.66
2023-05-16T07:26:32.341Z,98932.66
2023-05-16T07:29:02.838Z,98937.88
2023-05-16T07:31:31.568Z,98947.34
2023-05-16T07:33:59.949Z,98947.75
2023-05-16T07:36:28.106Z,98950.19
2023-05-16T07:38:56.566Z,98939.91
2023-05-16T07:41:25.624Z,98935.88
2023-05-16T07:43:53.827Z,98939.72
2023-05-16T07:46:22.920Z,98954.19
2023-05-16T07:48:51.123Z,98958.94
2023-05-16T07:51:19.210Z,98948.97
2023-05-16T07:53:48.113Z,98948.94
2023-05-16T07:56:16.434Z,98955.38
2023-05-16T07:58:44.520Z,98947.88
2023-05-16T08:01:12.905Z,98954.06
2023-05-16T08:03:41.152Z,98949.78
2023-05-16T08:06:09.537Z,98956.88
2023-05-16T08:08:38.149Z,98947.19
2023-05-16T08:11:06.517Z,98948.44
2023-05-16T08:13:34.532Z,98950.16
2023-05-16T08:16:02.872Z,98954.53
2023-05-16T08:18:31.363Z,98944.28
2023-05-16T08:20:59.504Z,98955.03
2023-05-16T08:23:27.696Z,98965.38
2023-05-16T08:25:55.812Z,98962.47
2023-05-16T08:28:24.074Z,98966.13
2023-05-16T08:30:52.530Z,98969.59
2023-05-16T08:33:20.774Z,98969.97
2023-05-16T08:35:52.872Z,98975.44
2023-05-16T08:38:21.049Z,98979.94
2023-05-16T08:40:48.994Z,98978.97
2023-05-16T08:43:17.113Z,98983.78
2023-05-16T08:45:45.980Z,98984.44
2023-05-16T08:48:17.383Z,98989.28
2023-05-16T08:50:45.689Z,98996.28
2023-05-16T08:53:19.657Z,99003.22
2023-05-16T08:55:49.666Z,99008.59
2023-05-16T08:58:19.178Z,99001.63
2023-05-16T09:00:48.170Z,99002.03
2023-05-16T09:03:17.922Z,98985.03
2023-05-16T09:05:48.742Z,98998.63
2023-05-16T09:08:17.365Z,98995.72
2023-05-16T09:10:45.705Z,98994.06
2023-05-16T09:13:14.459Z,98990.66
2023-05-16T09:15:42.826Z,98998.13
2023-05-16T09:18:16.583Z,99010.63
2023-05-16T09:20:50.279Z,99000.13
2023-05-16T09:23:25.882Z,98992.84
2023-05-16T09:25:55.323Z,98999.38
2023-05-16T09:28:25.860Z,98994.75
2023-05-16T09:30:55.825Z,99004.25
2023-05-16T09:33:24.456Z,99017.16
2023-05-16T09:36:11.629Z,99015.66
2023-05-16T09:38:40.127Z,99005.25
2023-05-16T09:41:10.812Z,99018.66
2023-05-16T09:43:42.153Z,99006.78
2023-05-16T09:46:15.976Z,98991.59
2023-05-16T09:48:49.216Z,98996.59
2023-05-16T09:51:23.141Z,99000.13
2023-05-16T09:53:52.103Z,98985.41
2023-05-16T09:56:21.746Z,98993.81
2023-05-16T09:58:53.412Z,98993.19
2023-05-16T10:01:23.379Z,99021.72
2023-05-16T10:03:52.326Z,99009.91
2023-05-16T10:06:21.282Z,99016.88
2023-05-16T10:08:50.060Z,99009.22
2023-05-16T10:11:20.236Z,99010.25
2023-05-16T10:13:53.507Z,99011.69
2023-05-16T10:16:24.542Z,99022.97
2023-05-16T10:18:53.573Z,99024.16
2023-05-16T10:21:23.555Z,99028.44
2023-05-16T10:23:53.457Z,99031.91
2023-05-16T10:26:23.799Z,99023.53
2023-05-16T10:28:53.225Z,99018.63
2023-05-16T10:31:21.594Z,99020.94
2023-05-16T10:33:50.502Z,99013.50
2023-05-16T10:36:19.442Z,99011.09
2023-05-16T10:38:48.655Z,99006.41
2023-05-16T10:41:17.994Z,99016.06
2023-05-16T10:43:58.221Z,99017.38
2023-05-16T10:46:29.440Z,99014.47
2023-05-16T10:48:58.887Z,99014.63
2023-05-16T10:51:37.747Z,99018.16
2023-05-16T10:54:12.852Z,99003.75
2023-05-16T10:56:43.613Z,99007.63
2023-05-16T10:59:27.157Z,99004.03
2023-05-16T11:01:57.404Z,98992.97
2023-05-16T11:04:48.368Z,98994.25
2023-05-16T11:07:23.055Z,98982.56
2023-05-16T11:10:10.620Z,98974.72
2023-05-16T11:12:52.498Z,98972.53
2023-05-16T11:15:29.360Z,98990.28
2023-05-16T11:18:16.112Z,98992.00
2023-05-16T11:20:44.518Z,98973.31
2023-05-16T11:23:24.060Z,98987.53
2023-05-16T11:25:59.166Z,98974.47
2023-05-16T11:28:28.383Z,98981.88
2023-05-16T11:31:02.315Z,98976.13
2023-05-16T11:33:35.874Z,98990.47
2023-05-16T11:38:44.140Z,98990.00
2023-05-16T11:41:18.957Z,98986.50
2023-05-16T11:43:50.063Z,98990.81
2023-05-16T11:46:19.464Z,98999.91
2023-05-16T11:48:48.376Z,98999.38
2023-05-16T11:51:21.068Z,98990.19
2023-05-16T11:53:51.372Z,98977.34
2023-05-16T11:56:22.656Z,98995.72
2023-05-16T11:58:52.361Z,98983.78
2023-05-16T12:01:20.530Z,98994.09
2023-05-16T12:03:58.818Z,98990.25
2023-05-16T12:06:29.596Z,98991.78
2023-05-16T12:09:00.153Z,98988.34
2023-05-16T12:11:28.613Z,98986.91
2023-05-16T12:13:57.057Z,98979.28
2023-05-16T12:16:26.443Z,98982.09
2023-05-16T12:18:55.131Z,98974.75
2023-05-16T12:21:23.074Z,98977.22
2023-05-16T12:23:56.097Z,98971.84
2023-05-16T12:26:33.715Z,98986.41
2023-05-16T12:29:05.381Z,98988.09
2023-05-16T12:31:39.137Z,98986.53
2023-05-16T12:34:20.639Z,99001.28
2023-05-16T12:36:52.957Z,98987.03
2023-05-16T12:39:23.040Z,98990.50
2023-05-16T12:41:52.879Z,98979.75
2023-05-16T12:44:24.255Z,98983.34
2023-05-16T12:46:54.118Z,98974.09
2023-05-16T12:49:23.545Z,98969.50
2023-05-16T12:51:55.421Z,98973.28
2023-05-16T12:54:24.491Z,98990.25
2023-05-16T12:56:53.609Z,98991.13
2023-05-16T12:59:23.364Z,98980.59
2023-05-16T13:01:52.018Z,98980.59
2023-05-16T13:04:21.656Z,98986.09
2023-05-16T13:09:22.674Z,98986.22
2023-05-16T13:11:50.960Z,98993.09
2023-05-16T13:14:19.165Z,98996.88
2023-05-16T13:16:47.939Z,98999.91
2023-05-16T13:19:16.645Z,98992.63
2023-05-16T13:21:45.008Z,98972.69
2023-05-16T13:24:14.363Z,98972.38
2023-05-16T13:26:42.885Z,98972.56
2023-05-16T13:29:12.390Z,98981.84
2023-05-16T13:31:40.640Z,98978.06
2023-05-16T13:34:08.650Z,98968.59
2023-05-16T13:36:52.251Z,98975.69
2023-05-16T13:39:22.573Z,98984.50
2023-05-16T13:41:51.582Z,98988.44
2023-05-16T13:44:19.703Z,98979.50
2023-05-16T13:46:47.927Z,98972.63
2023-05-16T13:49:15.782Z,98978.19
2023-05-16T13:51:43.783Z,98979.28
2023-05-16T13:54:12.174Z,98981.66
2023-05-16T13:56:40.140Z,98996.00
2023-05-16T13:59:10.185Z,98994.25
2023-05-16T14:01:39.998Z,98984.97
2023-05-16T14:04:08.276Z,98994.72
2023-05-16T14:06:36.239Z,99010.78
2023-05-16T14:09:04.551Z,99013.00
2023-05-16T14:11:32.487Z,99006.91
2023-05-16T14:14:01.340Z,99015.72
2023-05-16T14:16:31.321Z,99007.31
2023-05-16T14:18:59.573Z,99012.00
2023-05-16T14:21:27.507Z,99008.09
2023-05-16T14:23:55.663Z,99022.03
2023-05-16T14:26:25.526Z,99019.56
2023-05-16T14:28:56.571Z,99014.56
2023-05-16T14:31:24.690Z,99010.91
2023-05-16T14:33:52.814Z,99003.88
2023-05-16T14:36:20.794Z,99011.00
2023-05-16T14:38:49.323Z,99025.69
2023-05-16T14:41:17.933Z,99023.22
2023-05-16T14:43:46.300Z,99025.19
2023-05-16T14:46:14.443Z,99022.44
2023-05-16T14:48:42.558Z,99030.03
2023-05-16T14:51:10.957Z,99029.38
2023-05-16T14:53:39.050Z,99035.31
2023-05-16T14:56:07.460Z,99041.56
2023-05-16T14:58:35.895Z,99042.56
2023-05-16T15:01:04.774Z,99033.56
2023-05-16T15:03:43.343Z,99046.53
2023-05-16T15:06:19.150Z,99037.53
2023-05-16T15:08:47.237Z,99042.63
2023-05-16T15:11:15.116Z,99047.56
2023-05-16T15:16:11.374Z,99030.97
2023-05-16T15:18:40.516Z,99037.91
2023-05-16T15:21:09.395Z,99033.91
2023-05-16T15:23:37.445Z,99032.47
2023-05-16T15:26:06.580Z,99028.81
2023-05-16T15:28:34.631Z,99017.22
2023-05-16T15:31:07.485Z,99027.25
2023-05-16T15:33:45.428Z,99033.03
2023-05-16T15:36:16.643Z,99032.50
2023-05-16T15:38:45.852Z,99028.19
2023-05-16T15:41:31.523Z,99027.59
2023-05-16T15:44:04.885Z,99031.91
2023-05-16T15:46:33.420Z,99037.09
2023-05-16T15:49:01.621Z,99037.16
2023-05-16T15:51:29.699Z,99040.22
2023-05-16T15:53:57.703Z,99031.00
2023-05-16T15:56:25.979Z,99027.25
2023-05-16T15:58:56.462Z,99031.75
2023-05-16T16:01:25.296Z,99033.84
2023-05-16T16:03:53.491Z,99047.72
2023-05-16T16:06:21.958Z,99034.88
2023-05-16T16:08:51.413Z,99027.31
2023-05-16T16:11:23.636Z,99036.97
2023-05-16T16:13:52.773Z,99041.22
2023-05-16T16:16:21.906Z,99036.56
2023-05-16T16:18:50.634Z,99034.47
2023-05-16T16:21:19.229Z,99030.25
2023-05-16T16:23:47.443Z,99028.22
2023-05-16T16:26:16.755Z,99029.25
2023-05-16T16:28:46.159Z,99034.84
2023-05-16T16:31:15.250Z,99035.94
2023-05-16T16:33:43.855Z,99038.22
2023-05-16T16:36:12.084Z,99038.56
2023-05-16T16:38:40.200Z,99040.25
2023-05-16T16:41:08.640Z,99045.91
2023-05-16T16:43:41.239Z,99041.25
2023-05-16T16:46:09.728Z,99040.31
2023-05-16T16:48:38.262Z,99046.22
2023-05-16T16:51:06.347Z,99049.22
2023-05-16T16:53:35.404Z,99057.16
2023-05-16T16:56:03.785Z,99053.72
2023-05-16T16:58:31.883Z,99061.41
2023-05-16T17:01:00.299Z,99061.66
2023-05-16T17:03:28.474Z,99060.84
2023-05-16T17:05:56.946Z,99054.59
2023-05-16T17:08:25.145Z,99063.34
2023-05-16T17:10:53.493Z,99058.78
2023-05-16T17:13:21.879Z,99066.34
2023-05-16T17:15:50.123Z,99068.59
2023-05-16T17:18:19.756Z,99072.59
2023-05-16T17:20:47.786Z,99078.88
2023-05-16T17:23:16.079Z,99076.81
2023-05-16T17:25:45.327Z,99074.28
2023-05-16T17:28:14.046Z,99081.56
2023-05-16T17:30:42.135Z,99077.91
2023-05-16T17:33:12.837Z,99083.50
2023-05-16T17:35:41.362Z,99076.88
2023-05-16T17:38:10.425Z,99067.09
2023-05-16T17:40:38.902Z,99064.22
2023-05-16T17:43:07.032Z,99068.19
2023-05-16T17:45:35.205Z,99062.78
2023-05-16T17:48:03.644Z,99062.38
2023-05-16T17:50:32.685Z,99066.50
2023-05-16T17:53:00.715Z,99059.22
2023-05-16T17:55:30.314Z,99065.47
2023-05-16T17:57:58.471Z,99063.63
2023-05-16T18:00:26.919Z,99063.59
2023-05-16T18:02:55.677Z,99065.31
2023-05-16T18:05:24.438Z,99063.44
2023-05-16T18:07:53.946Z,99069.91
2023-05-16T18:10:22.167Z,99073.03
2023-05-16T18:12:50.544Z,99078.84
2023-05-16T18:15:19.001Z,99073.47
2023-05-16T18:17:47.531Z,99076.97
2023-05-16T18:20:15.982Z,99069.91
2023-05-16T18:22:44.643Z,99072.00
2023-05-16T18:25:13.117Z,99073.66
2023-05-16T18:27:41.632Z,99075.72
2023-05-16T18:30:10.968Z,99073.03
2023-05-16T18:32:42.157Z,99076.56
2023-05-16T18:35:11.412Z,99084.03
2023-05-16T18:37:43.504Z,99086.31
2023-05-16T18:40:14.686Z,99077.38
2023-05-16T18:42:42.989Z,99077.16
2023-05-16T18:45:12.291Z,99085.28
2023-05-16T18:47:40.649Z,99081.50
2023-05-16T18:50:09.780Z,99089.22
2023-05-16T18:52:40.605Z,99089.19
2023-05-16T18:55:09.449Z,99089.38
2023-05-16T18:57:37.561Z,99091.69
2023-05-16T19:00:07.676Z,99101.44
2023-05-16T19:05:11.198Z,99083.59
2023-05-16T19:07:39.554Z,99084.81
2023-05-16T19:10:12.679Z,99096.84
2023-05-16T19:12:42.097Z,99103.94
2023-05-16T19:15:11.789Z,99101.84
2023-05-16T19:17:41.837Z,99098.31
2023-05-16T19:20:11.235Z,99098.09
2023-05-16T19:22:39.593Z,99091.25
2023-05-16T19:25:08.469Z,99090.03
2023-05-16T19:27:36.899Z,99092.91
2023-05-16T19:30:06.414Z,99100.59
2023-05-16T19:32:34.629Z,99100.16
2023-05-16T19:35:03.971Z,99098.09
2023-05-16T19:37:32.618Z,99089.59
2023-05-16T19:40:00.918Z,99088.75
2023-05-16T19:42:29.666Z,99081.09
2023-05-16T19:44:59.230Z,99074.66
2023-05-16T19:47:27.235Z,99069.69
2023-05-16T19:49:55.583Z,99073.19
2023-05-16T19:52:26.140Z,99079.41
2023-05-16T19:54:54.192Z,99078.16
2023-05-16T19:57:22.316Z,99081.81
2023-05-16T19:59:50.605Z,99083.50
2023-05-16T20:02:21.167Z,99083.25
2023-05-16T20:04:50.890Z,99072.09
2023-05-16T20:07:19.194Z,99070.59
2023-05-16T20:09:48.188Z,99063.78
2023-05-16T20:12:18.822Z,99065.88
2023-05-16T20:14:48.167Z,99064.22
2023-05-16T20:17:16.425Z,99063.38
2023-05-16T20:19:44.793Z,99063.56
2023-05-16T20:22:13.051Z,99068.75
2023-05-16T20:24:41.371Z,99067.69
2023-05-16T20:27:09.526Z,99060.25
2023-05-16T20:29:37.860Z,99060.03
2023-05-16T20:32:06.405Z,99052.75
2023-05-16T20:34:34.923Z,99059.19
2023-05-16T20:37:03.094Z,99064.75
2023-05-16T20:39:32.282Z,99066.16
2023-05-16T20:42:00.731Z,99066.81
2023-05-16T20:44:29.612Z,99064.69
2023-05-16T20:46:58.401Z,99055.59
2023-05-16T20:49:26.953Z,99052.06
2023-05-16T20:51:55.120Z,99050.00
2023-05-16T20:54:23.389Z,99054.13
2023-05-16T20:56:51.614Z,99043.78
2023-05-16T20:59:20.109Z,99046.06
2023-05-16T21:01:48.333Z,99043.56
2023-05-16T21:04:17.199Z,99053.25
2023-05-16T21:06:45.712Z,99048.94
2023-05-16T21:09:14.046Z,99044.34
2023-05-16T21:11:42.112Z,99041.28
2023-05-16T21:14:10.197Z,99044.41
2023-05-16T21:16:38.237Z,99043.34
2023-05-16T21:19:06.937Z,99044.78
2023-05-16T21:21:35.093Z,99043.50
2023-05-16T21:24:04.381Z,99047.44
2023-05-16T21:26:32.394Z,99051.16
2023-05-16T21:29:00.586Z,99054.22
2023-05-16T21:31:28.956Z,99059.81
2023-05-16T21:33:57.069Z,99061.31
2023-05-16T21:36:25.209Z,99056.38
2023-05-16T21:38:53.245Z,99057.81
2023-05-16T21:45:41.548Z,99057.06
2023-05-16T21:48:09.783Z,99046.72
2023-05-16T21:50:38.126Z,99048.53
2023-05-16T21:53:06.691Z,99045.38
2023-05-16T21:55:34.636Z,99040.31
2023-05-16T21:58:02.716Z,99044.78
2023-05-16T22:00:31.082Z,99048.84
2023-05-16T22:02:59.178Z,99046.06
2023-05-16T22:05:27.717Z,99051.44
2023-05-16T22:07:56.023Z,99057.28
2023-05-16T22:10:24.316Z,99058.16
2023-05-16T22:12:52.263Z,99055.72
2023-05-16T22:15:20.692Z,99043.09
2023-05-16T22:17:49.291Z,99037.75
2023-05-16T22:20:17.455Z,99033.09
2023-05-16T22:22:45.555Z,99027.06
2023-05-16T22:25:13.807Z,99034.59
2023-05-16T22:27:41.869Z,99029.56
2023-05-16T22:30:10.550Z,99028.56
2023-05-16T22:32:38.992Z,99033.09
2023-05-16T22:35:07.947Z,99029.50
2023-05-16T22:37:36.246Z,99032.91
2023-05-16T22:40:05.065Z,99030.78
2023-05-16T22:42:33.738Z,99033.28
2023-05-16T22:45:02.154Z,99039.03
2023-05-16T22:47:30.696Z,99031.97
2023-05-16T22:49:59.019Z,99042.06
2023-05-16T22:52:27.880Z,99038.19
2023-05-16T22:54:56.097Z,99033.09
2023-05-16T22:57:24.065Z,99038.84
2023-05-16T22:59:54.876Z,99044.38
2023-05-16T23:02:24.969Z,99040.13
2023-05-16T23:04:55.558Z,99040.59
2023-05-16T23:07:24.118Z,99032.91
2023-05-16T23:09:52.144Z,99034.13
2023-05-16T23:12:21.825Z,99029.41
2023-05-16T23:14:50.007Z,99031.81
2023-05-16T23:17:18.041Z,99024.72
2023-05-16T23:19:46.227Z,99026.69
2023-05-16T23:22:14.547Z,99029.38
2023-05-16T23:24:42.623Z,99026.25
2023-05-16T23:27:10.982Z,99024.75
2023-05-16T23:29:39.091Z,99029.28
2023-05-16T23:32:07.625Z,99030.75
2023-05-16T23:34:36.053Z,99021.06
2023-05-16T23:37:04.066Z,99028.44
2023-05-16T23:39:32.034Z,99022.44
2023-05-16T23:42:01.866Z,99024.47
2023-05-16T23:44:30.634Z,99017.84
2023-05-16T23:46:58.986Z,99018.66
2023-05-16T23:49:27.222Z,99015.97
2023-05-16T23:51:58.265Z,99017.28
2023-05-16T23:54:26.966Z,99022.63
2023-05-16T23:56:55.308Z,99018.00
2023-05-16T23:59:24.272Z,99021.13
